createdAt,value
2023-02-08T00:01:52.966Z,15.23
2023-02-08T00:02:54.928Z,16.38
2023-02-08T00:03:56.835Z,16.45
2023-02-08T00:04:58.836Z,18.85
2023-02-08T00:06:00.792Z,18.08
2023-02-08T00:07:03.535Z,17.38
2023-02-08T00:08:06.398Z,16.85
2023-02-08T00:09:09.598Z,17.05
2023-02-08T00:10:12.540Z,16.08
2023-02-08T00:11:14.911Z,17.73
2023-02-08T00:12:18.549Z,15.73
2023-02-08T00:13:20.854Z,16.92
2023-02-08T00:14:22.753Z,13.55
2023-02-08T00:15:24.844Z,18.42
2023-02-08T00:16:26.700Z,16.00
2023-02-08T00:17:29.008Z,15.88
2023-02-08T00:18:31.079Z,14.70
2023-02-08T00:19:33.172Z,15.02
2023-02-08T00:20:35.116Z,16.23
2023-02-08T00:21:37.103Z,15.77
2023-02-08T00:22:39.125Z,15.55
2023-02-08T00:23:41.284Z,13.57
2023-02-08T00:24:43.330Z,16.63
2023-02-08T00:25:46.346Z,14.63
2023-02-08T00:26:51.680Z,13.80
2023-02-08T00:27:53.621Z,14.27
2023-02-08T00:28:55.618Z,15.70
2023-02-08T00:29:57.524Z,16.27
2023-02-08T00:30:59.511Z,15.38
2023-02-08T00:32:06.708Z,15.25
2023-02-08T00:33:08.764Z,15.18
2023-02-08T00:34:10.640Z,14.32
2023-02-08T00:35:12.513Z,13.88
2023-02-08T00:36:14.464Z,14.45
2023-02-08T00:37:16.797Z,14.38
2023-02-08T00:38:18.787Z,14.23
2023-02-08T00:39:21.447Z,15.32
2023-02-08T00:40:24.141Z,15.73
2023-02-08T00:41:26.152Z,16.90
2023-02-08T00:42:28.331Z,15.45
2023-02-08T00:43:30.385Z,15.70
2023-02-08T00:44:32.419Z,16.27
2023-02-08T00:45:34.326Z,14.23
2023-02-08T00:46:36.192Z,15.35
2023-02-08T00:47:38.332Z,14.63
2023-02-08T00:48:40.193Z,16.58
2023-02-08T00:49:42.167Z,14.27
2023-02-08T00:50:44.120Z,14.57
2023-02-08T00:51:46.078Z,14.52
2023-02-08T00:52:48.006Z,14.43
2023-02-08T00:53:50.191Z,16.00
2023-02-08T00:54:52.070Z,15.55
2023-02-08T00:55:55.355Z,14.35
2023-02-08T00:56:57.184Z,13.73
2023-02-08T00:57:59.255Z,13.20
2023-02-08T00:59:01.152Z,11.93
2023-02-08T01:00:04.759Z,13.02
2023-02-08T01:01:07.748Z,13.88
2023-02-08T01:02:09.870Z,14.70
2023-02-08T01:03:11.842Z,15.90
2023-02-08T01:04:13.826Z,15.75
2023-02-08T01:05:15.732Z,15.23
2023-02-08T01:06:18.573Z,15.07
2023-02-08T01:07:20.553Z,16.45
2023-02-08T01:08:22.514Z,17.23
2023-02-08T01:09:25.119Z,14.93
2023-02-08T01:10:27.029Z,14.85
2023-02-08T01:11:29.010Z,14.23
2023-02-08T01:12:31.235Z,14.73
2023-02-08T01:13:33.557Z,15.23
2023-02-08T01:14:38.340Z,17.02
2023-02-08T01:15:40.534Z,17.05
2023-02-08T01:16:42.645Z,14.50
2023-02-08T01:17:44.731Z,16.67
2023-02-08T01:18:48.223Z,14.07
2023-02-08T01:19:50.195Z,12.57
2023-02-08T01:20:52.073Z,14.35
2023-02-08T01:21:54.027Z,15.40
2023-02-08T01:22:56.392Z,14.88
2023-02-08T01:23:58.764Z,16.67
2023-02-08T01:25:01.351Z,14.95
2023-02-08T01:26:04.862Z,14.85
2023-02-08T01:27:06.667Z,13.63
2023-02-08T01:28:08.534Z,13.60
2023-02-08T01:29:10.605Z,17.13
2023-02-08T01:30:13.398Z,13.18
2023-02-08T01:31:18.241Z,14.88
2023-02-08T01:32:20.219Z,15.70
2023-02-08T01:33:22.310Z,16.27
2023-02-08T01:34:24.401Z,15.00
2023-02-08T01:35:26.521Z,15.40
2023-02-08T01:36:30.114Z,15.27
2023-02-08T01:37:31.959Z,15.48
2023-02-08T01:38:34.660Z,15.40
2023-02-08T01:39:36.536Z,14.85
2023-02-08T01:40:38.724Z,14.93
2023-02-08T01:41:44.566Z,15.45
2023-02-08T01:42:46.376Z,15.40
2023-02-08T01:44:12.341Z,13.15
2023-02-08T01:45:21.041Z,15.52
2023-02-08T01:46:23.301Z,12.32
2023-02-08T01:47:25.451Z,11.85
2023-02-08T01:48:37.038Z,14.18
2023-02-08T01:49:39.280Z,13.15
2023-02-08T01:50:54.297Z,14.68
2023-02-08T01:52:05.301Z,13.60
2023-02-08T01:53:07.195Z,12.80
2023-02-08T01:54:13.313Z,14.75
2023-02-08T01:55:20.979Z,13.27
2023-02-08T01:56:31.794Z,11.77
2023-02-08T01:57:33.900Z,13.27
2023-02-08T01:58:41.547Z,12.52
2023-02-08T01:59:49.179Z,12.77
2023-02-08T02:00:51.017Z,13.10
2023-02-08T02:01:56.506Z,14.23
2023-02-08T02:02:59.677Z,12.35
2023-02-08T02:04:05.029Z,13.75
2023-02-08T02:05:07.698Z,13.85
2023-02-08T02:06:17.162Z,13.98
2023-02-08T02:07:21.782Z,11.15
2023-02-08T02:09:31.363Z,12.07
2023-02-08T02:10:38.213Z,13.73
2023-02-08T02:11:40.625Z,12.82
2023-02-08T02:12:43.067Z,12.73
2023-02-08T02:13:45.238Z,11.85
2023-02-08T02:14:47.837Z,13.93
2023-02-08T02:15:50.998Z,13.63
2023-02-08T02:16:52.852Z,13.45
2023-02-08T02:17:55.502Z,16.30
2023-02-08T02:18:57.755Z,13.45
2023-02-08T02:20:14.603Z,14.40
2023-02-08T02:21:45.396Z,13.85
2023-02-08T02:22:57.930Z,13.13
2023-02-08T02:24:26.211Z,13.85
2023-02-08T02:25:43.014Z,12.60
2023-02-08T02:27:19.016Z,12.63
2023-02-08T02:28:56.509Z,12.15
2023-02-08T02:30:17.142Z,12.70
2023-02-08T02:31:37.223Z,12.70
2023-02-08T02:32:51.387Z,13.48
2023-02-08T02:34:05.654Z,13.88
2023-02-08T02:35:12.099Z,13.32
2023-02-08T02:36:26.067Z,13.60
2023-02-08T02:37:47.829Z,13.65
2023-02-08T02:39:05.996Z,15.60
2023-02-08T02:40:23.836Z,14.35
2023-02-08T02:42:10.651Z,13.50
2023-02-08T02:43:39.854Z,14.00
2023-02-08T02:45:12.657Z,14.52
2023-02-08T02:46:37.662Z,13.05
2023-02-08T02:47:58.427Z,14.00
2023-02-08T02:49:06.701Z,11.90
2023-02-08T02:50:14.583Z,14.00
2023-02-08T02:51:27.570Z,11.98
2023-02-08T02:52:39.973Z,12.73
2023-02-08T02:54:00.397Z,12.77
2023-02-08T02:55:11.049Z,14.82
2023-02-08T02:56:20.382Z,12.32
2023-02-08T02:57:30.420Z,13.70
2023-02-08T02:58:33.435Z,13.95
2023-02-08T02:59:38.286Z,11.90
2023-02-08T03:00:41.238Z,13.63
2023-02-08T03:01:45.585Z,14.38
2023-02-08T03:02:47.409Z,10.13
2023-02-08T03:03:51.081Z,12.18
2023-02-08T03:04:56.193Z,11.43
2023-02-08T03:06:06.904Z,12.77
2023-02-08T03:07:19.014Z,10.75
2023-02-08T03:08:33.154Z,12.25
2023-02-08T03:10:00.193Z,11.25
2023-02-08T03:11:32.969Z,10.52
2023-02-08T03:12:58.959Z,11.88
2023-02-08T03:14:20.607Z,10.85
2023-02-08T03:15:40.668Z,11.00
2023-02-08T03:16:51.596Z,12.00
2023-02-08T03:18:03.905Z,11.00
2023-02-08T03:19:08.521Z,11.05
2023-02-08T03:20:18.619Z,12.65
2023-02-08T03:21:20.409Z,12.70
2023-02-08T03:22:35.441Z,14.98
2023-02-08T03:24:18.651Z,13.70
2023-02-08T03:25:28.673Z,11.07
2023-02-08T03:26:42.632Z,10.50
2023-02-08T03:28:01.956Z,10.57
2023-02-08T03:29:12.491Z,10.40
2023-02-08T03:30:28.169Z,11.65
2023-02-08T03:31:53.003Z,9.43
2023-02-08T03:33:11.187Z,11.57
2023-02-08T03:34:18.860Z,11.77
2023-02-08T03:35:27.870Z,11.00
2023-02-08T03:36:40.973Z,11.75
2023-02-08T03:37:50.254Z,11.93
2023-02-08T03:38:54.872Z,12.27
2023-02-08T03:40:04.709Z,12.18
2023-02-08T03:41:10.467Z,11.40
2023-02-08T03:42:19.410Z,10.15
2023-02-08T03:43:27.710Z,11.80
2023-02-08T03:44:35.563Z,11.57
2023-02-08T03:45:46.886Z,11.68
2023-02-08T03:47:14.996Z,11.25
2023-02-08T03:48:20.174Z,10.30
2023-02-08T03:49:31.558Z,13.10
2023-02-08T03:50:36.533Z,12.00
2023-02-08T03:51:41.613Z,11.40
2023-02-08T03:52:49.436Z,10.18
2023-02-08T03:53:54.181Z,13.05
2023-02-08T03:55:01.901Z,9.43
2023-02-08T03:56:11.164Z,11.23
2023-02-08T03:57:23.959Z,10.07
2023-02-08T03:58:35.319Z,11.25
2023-02-08T03:59:41.553Z,9.18
2023-02-08T04:00:48.989Z,9.10
2023-02-08T04:01:59.218Z,11.18
2023-02-08T04:03:13.868Z,11.07
2023-02-08T04:04:19.264Z,10.05
2023-02-08T04:05:22.587Z,9.60
2023-02-08T04:06:24.856Z,10.80
2023-02-08T04:07:27.013Z,11.45
2023-02-08T04:08:29.678Z,9.15
2023-02-08T04:09:31.829Z,9.40
2023-02-08T04:10:34.084Z,10.52
2023-02-08T04:11:36.351Z,13.15
2023-02-08T04:12:38.469Z,11.13
2023-02-08T04:13:40.863Z,10.73
2023-02-08T04:14:42.873Z,10.48
2023-02-08T04:15:45.025Z,10.00
2023-02-08T04:16:46.937Z,9.40
2023-02-08T04:17:48.936Z,10.90
2023-02-08T04:18:50.991Z,10.10
2023-02-08T04:19:53.302Z,10.98
2023-02-08T04:20:55.557Z,11.05
2023-02-08T04:21:57.466Z,12.13
2023-02-08T04:22:59.509Z,10.02
2023-02-08T04:24:01.302Z,11.15
2023-02-08T04:25:06.604Z,11.50
2023-02-08T04:26:09.665Z,11.55
2023-02-08T04:27:11.881Z,11.27
2023-02-08T04:28:13.884Z,10.85
2023-02-08T04:29:17.137Z,9.98
2023-02-08T04:30:19.129Z,10.57
2023-02-08T04:31:21.437Z,11.80
2023-02-08T04:32:23.642Z,10.55
2023-02-08T04:33:25.524Z,10.50
2023-02-08T04:34:27.541Z,10.15
2023-02-08T04:35:29.401Z,10.45
2023-02-08T04:36:31.437Z,10.60
2023-02-08T04:37:34.892Z,9.73
2023-02-08T04:38:37.094Z,8.70
2023-02-08T04:39:39.115Z,10.38
2023-02-08T04:40:41.257Z,10.80
2023-02-08T04:41:43.280Z,8.68
2023-02-08T04:42:45.136Z,9.23
2023-02-08T04:43:47.161Z,9.70
2023-02-08T04:44:49.221Z,9.75
2023-02-08T04:45:51.523Z,10.40
2023-02-08T04:46:53.384Z,8.77
2023-02-08T04:47:55.872Z,9.35
2023-02-08T04:48:58.986Z,10.60
2023-02-08T04:50:01.106Z,7.72
2023-02-08T04:51:02.997Z,10.70
2023-02-08T04:52:04.956Z,9.00
2023-02-08T04:53:06.921Z,10.32
2023-02-08T04:54:08.956Z,8.57
2023-02-08T04:55:10.783Z,10.05
2023-02-08T04:56:12.710Z,10.18
2023-02-08T04:57:15.436Z,9.27
2023-02-08T04:58:17.596Z,10.70
2023-02-08T04:59:19.922Z,8.80
2023-02-08T05:00:22.030Z,7.88
2023-02-08T05:01:26.495Z,8.68
2023-02-08T05:02:28.678Z,8.43
2023-02-08T05:03:31.205Z,8.55
2023-02-08T05:04:33.336Z,7.75
2023-02-08T05:05:35.537Z,8.63
2023-02-08T05:06:37.656Z,8.57
2023-02-08T05:07:39.926Z,8.15
2023-02-08T05:08:41.926Z,7.35
2023-02-08T05:09:44.327Z,9.20
2023-02-08T05:10:46.342Z,7.25
2023-02-08T05:11:48.578Z,7.57
2023-02-08T05:12:50.532Z,8.20
2023-02-08T05:13:52.374Z,8.90
2023-02-08T05:14:54.181Z,6.28
2023-02-08T05:15:56.076Z,8.40
2023-02-08T05:16:58.187Z,6.93
2023-02-08T05:18:00.045Z,7.75
2023-02-08T05:19:02.258Z,7.45
2023-02-08T05:20:05.386Z,7.72
2023-02-08T05:21:07.326Z,7.22
2023-02-08T05:22:09.427Z,9.15
2023-02-08T05:23:12.576Z,7.13
2023-02-08T05:24:14.829Z,7.32
2023-02-08T05:25:18.249Z,8.18
2023-02-08T05:26:20.783Z,9.70
2023-02-08T05:27:23.433Z,7.97
2023-02-08T05:28:26.068Z,8.32
2023-02-08T05:29:28.252Z,7.90
2023-02-08T05:30:30.133Z,7.47
2023-02-08T05:31:32.135Z,7.93
2023-02-08T05:32:34.048Z,7.30
2023-02-08T05:33:35.933Z,7.38
2023-02-08T05:34:38.189Z,7.93
2023-02-08T05:35:40.044Z,7.50
2023-02-08T05:36:42.044Z,8.02
2023-02-08T05:37:44.048Z,9.63
2023-02-08T05:38:45.919Z,8.25
2023-02-08T05:39:47.913Z,8.35
2023-02-08T05:40:49.821Z,8.82
2023-02-08T05:41:51.665Z,7.95
2023-02-08T05:42:53.537Z,8.25
2023-02-08T05:43:55.352Z,9.13
2023-02-08T05:44:57.199Z,8.32
2023-02-08T05:45:59.171Z,8.27
2023-02-08T05:47:04.220Z,8.25
2023-02-08T05:48:06.464Z,8.57
2023-02-08T05:49:08.330Z,8.10
2023-02-08T05:50:10.763Z,9.20
2023-02-08T05:51:12.673Z,8.43
2023-02-08T05:52:14.794Z,8.32
2023-02-08T05:53:16.826Z,8.65
2023-02-08T05:54:18.820Z,8.05
2023-02-08T05:55:20.744Z,8.77
2023-02-08T05:56:22.511Z,8.38
2023-02-08T05:57:24.341Z,9.00
2023-02-08T05:58:26.585Z,8.27
2023-02-08T05:59:28.518Z,8.23
2023-02-08T06:00:30.380Z,9.38
2023-02-08T06:01:32.274Z,9.13
2023-02-08T06:02:34.378Z,8.38
2023-02-08T06:03:36.606Z,9.20
2023-02-08T06:04:39.305Z,8.00
2023-02-08T06:05:41.663Z,10.00
2023-02-08T06:06:43.894Z,8.93
2023-02-08T06:07:45.732Z,7.75
2023-02-08T06:08:47.929Z,9.68
2023-02-08T06:09:49.713Z,8.73
2023-02-08T06:10:51.512Z,8.88
2023-02-08T06:11:53.356Z,7.43
2023-02-08T06:12:55.191Z,9.38
2023-02-08T06:13:57.062Z,7.00
2023-02-08T06:14:58.996Z,9.10
2023-02-08T06:16:00.854Z,8.95
2023-02-08T06:17:02.798Z,9.05
2023-02-08T06:18:05.917Z,8.68
2023-02-08T06:19:07.849Z,8.60
2023-02-08T06:20:10.252Z,8.85
2023-02-08T06:21:12.617Z,7.65
2023-02-08T06:22:14.739Z,10.32
2023-02-08T06:23:16.770Z,8.82
2023-02-08T06:24:18.656Z,8.15
2023-02-08T06:25:20.623Z,8.98
2023-02-08T06:26:22.538Z,8.25
2023-02-08T06:27:24.506Z,7.35
2023-02-08T06:28:26.377Z,5.18
2023-02-08T06:29:28.638Z,8.73
2023-02-08T06:30:30.687Z,8.13
2023-02-08T06:31:32.806Z,8.93
2023-02-08T06:32:34.784Z,7.60
2023-02-08T06:33:36.756Z,7.28
2023-02-08T06:34:38.738Z,8.18
2023-02-08T06:35:40.519Z,7.45
2023-02-08T06:36:42.470Z,10.25
2023-02-08T06:37:44.408Z,8.70
2023-02-08T06:38:46.459Z,9.32
2023-02-08T06:39:48.375Z,8.70
2023-02-08T06:40:50.554Z,7.60
2023-02-08T06:41:52.541Z,6.43
2023-02-08T06:42:54.523Z,9.55
2023-02-08T06:43:59.401Z,9.27
2023-02-08T06:45:01.176Z,9.77
2023-02-08T06:46:08.839Z,7.13
2023-02-08T06:47:10.846Z,7.85
2023-02-08T06:48:13.566Z,7.93
2023-02-08T06:49:15.584Z,7.38
2023-02-08T06:50:17.519Z,7.32
2023-02-08T06:51:19.468Z,5.90
2023-02-08T06:52:21.892Z,7.45
2023-02-08T06:53:23.708Z,5.72
2023-02-08T06:54:25.549Z,5.70
2023-02-08T06:55:27.525Z,9.10
2023-02-08T06:56:29.366Z,8.68
2023-02-08T06:57:31.360Z,5.28
2023-02-08T06:58:33.293Z,4.53
2023-02-08T06:59:35.284Z,8.55
2023-02-08T07:00:39.392Z,7.63
2023-02-08T07:01:44.137Z,6.72
2023-02-08T07:02:47.541Z,4.38
2023-02-08T07:03:49.302Z,7.55
2023-02-08T07:04:51.482Z,6.47
2023-02-08T07:06:04.565Z,6.15
2023-02-08T07:07:07.990Z,8.40
2023-02-08T07:08:09.970Z,5.78
2023-02-08T07:09:11.856Z,8.82
2023-02-08T07:10:13.780Z,7.30
2023-02-08T07:11:19.766Z,8.35
2023-02-08T07:12:21.934Z,8.32
2023-02-08T07:13:23.736Z,6.15
2023-02-08T07:14:25.539Z,7.88
2023-02-08T07:15:27.395Z,8.95
2023-02-08T07:16:29.382Z,9.15
2023-02-08T07:17:31.338Z,6.88
2023-02-08T07:18:33.801Z,8.25
2023-02-08T07:19:35.825Z,6.45
2023-02-08T07:20:37.666Z,8.02
2023-02-08T07:21:39.835Z,6.05
2023-02-08T07:22:42.301Z,6.43
2023-02-08T07:23:44.391Z,6.65
2023-02-08T07:24:46.236Z,6.60
2023-02-08T07:26:02.747Z,4.97
2023-02-08T07:27:07.160Z,6.13
2023-02-08T07:29:10.756Z,4.72
2023-02-08T07:30:12.843Z,7.43
2023-02-08T07:31:16.761Z,8.00
2023-02-08T07:32:18.814Z,5.60
2023-02-08T07:33:21.927Z,5.75
2023-02-08T07:34:23.755Z,6.30
2023-02-08T07:35:25.602Z,7.80
2023-02-08T07:36:27.525Z,5.35
2023-02-08T07:37:29.539Z,8.57
2023-02-08T07:38:35.440Z,5.28
2023-02-08T07:39:37.300Z,7.53
2023-02-08T07:40:39.574Z,6.78
2023-02-08T07:41:41.549Z,5.60
2023-02-08T07:42:43.433Z,8.18
2023-02-08T07:43:45.525Z,6.88
2023-02-08T07:44:47.675Z,6.30
2023-02-08T07:45:49.535Z,5.30
2023-02-08T07:46:51.441Z,6.43
2023-02-08T07:47:53.267Z,6.70
2023-02-08T07:48:55.141Z,7.95
2023-02-08T07:49:56.991Z,8.27
2023-02-08T07:50:58.986Z,7.75
2023-02-08T07:52:02.000Z,9.88
2023-02-08T07:53:03.849Z,7.40
2023-02-08T07:54:05.761Z,7.75
2023-02-08T07:55:10.041Z,7.30
2023-02-08T07:56:11.837Z,6.50
2023-02-08T07:57:20.409Z,6.93
2023-02-08T07:58:22.555Z,5.70
2023-02-08T07:59:24.747Z,8.57
2023-02-08T08:00:27.283Z,7.55
2023-02-08T08:01:29.290Z,7.88
2023-02-08T08:02:31.200Z,8.57
2023-02-08T08:03:33.255Z,7.50
2023-02-08T08:04:35.601Z,8.02
2023-02-08T08:05:41.347Z,9.02
2023-02-08T08:06:44.369Z,8.48
2023-02-08T08:07:46.252Z,8.43
2023-02-08T08:08:48.724Z,8.55
2023-02-08T08:09:50.537Z,7.57
2023-02-08T08:10:54.783Z,8.25
2023-02-08T08:11:56.670Z,9.57
2023-02-08T08:12:58.564Z,8.88
2023-02-08T08:14:00.649Z,7.90
2023-02-08T08:15:02.761Z,7.40
2023-02-08T08:16:05.360Z,3.78
2023-02-08T08:17:07.474Z,8.88
2023-02-08T08:18:09.522Z,7.15
2023-02-08T08:19:11.434Z,6.88
2023-02-08T08:20:13.463Z,7.65
2023-02-08T08:21:16.828Z,8.35
2023-02-08T08:22:18.990Z,8.43
2023-02-08T08:23:20.834Z,5.95
2023-02-08T08:24:22.982Z,8.25
2023-02-08T08:25:25.244Z,8.00
2023-02-08T08:26:27.261Z,7.85
2023-02-08T08:27:29.171Z,8.82
2023-02-08T08:28:33.466Z,7.38
2023-02-08T08:29:39.518Z,8.68
2023-02-08T08:30:45.871Z,6.78
2023-02-08T08:31:47.901Z,8.73
2023-02-08T08:32:49.887Z,8.32
2023-02-08T08:33:51.878Z,6.70
2023-02-08T08:34:53.885Z,6.35
2023-02-08T08:35:55.812Z,9.10
2023-02-08T08:36:58.661Z,8.30
2023-02-08T08:38:00.550Z,6.43
2023-02-08T08:39:02.514Z,5.82
2023-02-08T08:40:06.943Z,7.07
2023-02-08T08:41:14.989Z,7.20
2023-02-08T08:42:17.023Z,8.25
2023-02-08T08:43:19.458Z,5.68
2023-02-08T08:44:21.769Z,8.65
2023-02-08T08:45:24.031Z,7.10
2023-02-08T08:46:26.117Z,6.47
2023-02-08T08:47:28.469Z,9.07
2023-02-08T08:48:30.289Z,6.40
2023-02-08T08:49:32.130Z,6.50
2023-02-08T08:50:34.004Z,6.80
2023-02-08T08:51:36.015Z,6.38
2023-02-08T08:52:39.830Z,6.68
2023-02-08T08:53:41.768Z,7.45
2023-02-08T08:54:43.551Z,8.02
2023-02-08T08:55:46.021Z,8.75
2023-02-08T08:56:48.066Z,7.28
2023-02-08T08:57:53.538Z,7.82
2023-02-08T08:58:55.855Z,10.02
2023-02-08T08:59:57.907Z,6.78
2023-02-08T09:01:00.598Z,8.75
2023-02-08T09:02:02.805Z,8.10
2023-02-08T09:03:04.772Z,5.85
2023-02-08T09:04:07.264Z,8.88
2023-02-08T09:05:09.645Z,8.07
2023-02-08T09:06:11.850Z,7.43
2023-02-08T09:07:13.858Z,5.75
2023-02-08T09:08:16.189Z,5.78
2023-02-08T09:09:18.225Z,7.88
2023-02-08T09:10:20.131Z,7.85
2023-02-08T09:11:22.320Z,7.63
2023-02-08T09:12:24.163Z,7.70
2023-02-08T09:13:26.070Z,7.35
2023-02-08T09:14:28.227Z,6.53
2023-02-08T09:15:30.228Z,7.70
2023-02-08T09:16:32.781Z,8.45
2023-02-08T09:17:34.796Z,8.00
2023-02-08T09:18:37.052Z,8.27
2023-02-08T09:19:38.984Z,8.10
2023-02-08T09:20:42.198Z,8.05
2023-02-08T09:21:44.605Z,8.00
2023-02-08T09:22:46.500Z,6.88
2023-02-08T09:23:48.696Z,6.60
2023-02-08T09:24:53.888Z,6.43
2023-02-08T09:25:55.705Z,8.43
2023-02-08T09:26:59.913Z,5.80
2023-02-08T09:28:02.042Z,5.47
2023-02-08T09:29:04.330Z,7.50
2023-02-08T09:30:06.514Z,9.00
2023-02-08T09:31:21.215Z,10.20
2023-02-08T09:32:23.340Z,8.07
2023-02-08T09:33:25.203Z,6.63
2023-02-08T09:34:27.054Z,8.57
2023-02-08T09:35:29.601Z,8.98
2023-02-08T09:36:40.446Z,9.23
2023-02-08T09:37:42.434Z,8.05
2023-02-08T09:38:44.749Z,8.13
2023-02-08T09:39:46.549Z,7.72
2023-02-08T09:41:12.037Z,7.10
2023-02-08T09:42:25.929Z,6.05
2023-02-08T09:43:55.179Z,7.15
2023-02-08T09:45:12.840Z,7.57
2023-02-08T09:46:30.082Z,7.53
2023-02-08T09:47:44.376Z,7.30
2023-02-08T09:48:49.380Z,6.35
2023-02-08T09:50:25.574Z,8.00
2023-02-08T09:51:42.189Z,5.78
2023-02-08T09:53:04.181Z,7.80
2023-02-08T09:54:22.847Z,7.60
2023-02-08T09:55:30.512Z,6.45
2023-02-08T09:56:40.559Z,8.63
2023-02-08T09:57:45.097Z,8.27
2023-02-08T09:58:51.889Z,9.43
2023-02-08T09:59:57.721Z,7.30
2023-02-08T10:01:00.258Z,7.05
2023-02-08T10:02:32.460Z,9.50
2023-02-08T10:03:38.383Z,8.45
2023-02-08T10:05:04.218Z,8.23
2023-02-08T10:06:09.715Z,6.60
2023-02-08T10:07:11.974Z,9.45
2023-02-08T10:08:13.860Z,9.63
2023-02-08T10:09:19.241Z,6.78
2023-02-08T10:10:27.357Z,8.10
2023-02-08T10:11:29.326Z,7.95
2023-02-08T10:13:17.446Z,7.43
2023-02-08T10:14:40.592Z,7.85
2023-02-08T10:15:51.572Z,5.70
2023-02-08T10:17:15.093Z,7.78
2023-02-08T10:18:43.096Z,6.90
2023-02-08T10:20:03.221Z,7.80
2023-02-08T10:21:28.534Z,6.90
2023-02-08T10:22:51.735Z,6.47
2023-02-08T10:24:12.333Z,6.53
2023-02-08T10:25:38.643Z,6.93
2023-02-08T10:27:13.369Z,8.20
2023-02-08T10:28:21.449Z,6.55
2023-02-08T10:29:51.514Z,8.73
2023-02-08T10:31:03.443Z,8.35
2023-02-08T10:32:36.493Z,6.10
2023-02-08T10:34:05.501Z,7.00
2023-02-08T10:35:37.305Z,7.28
2023-02-08T10:36:43.564Z,6.70
2023-02-08T10:37:51.982Z,8.80
2023-02-08T10:39:15.957Z,7.43
2023-02-08T10:40:38.519Z,5.78
2023-02-08T10:41:40.704Z,5.22
2023-02-08T10:43:07.956Z,8.02
2023-02-08T10:44:53.018Z,7.13
2023-02-08T10:46:13.440Z,5.32
2023-02-08T10:47:38.645Z,5.15
2023-02-08T10:49:08.386Z,7.10
2023-02-08T10:51:23.589Z,5.45
2023-02-08T10:52:25.683Z,7.50
2023-02-08T10:53:30.661Z,7.60
2023-02-08T10:54:40.050Z,9.70
2023-02-08T10:55:48.761Z,7.22
2023-02-08T10:56:55.964Z,6.57
2023-02-08T10:58:09.879Z,7.88
2023-02-08T10:59:35.902Z,6.55
2023-02-08T11:00:41.041Z,8.73
2023-02-08T11:01:45.545Z,9.35
2023-02-08T11:02:49.425Z,7.22
2023-02-08T11:04:11.709Z,8.52
2023-02-08T11:05:34.194Z,7.13
2023-02-08T11:06:43.510Z,7.72
2023-02-08T11:07:55.162Z,9.27
2023-02-08T11:09:02.597Z,6.28
2023-02-08T11:10:25.466Z,10.05
2023-02-08T11:11:29.764Z,7.32
2023-02-08T11:13:46.284Z,8.02
2023-02-08T11:14:52.904Z,8.35
2023-02-08T11:16:03.342Z,7.97
2023-02-08T11:17:23.058Z,6.60
2023-02-08T11:18:34.385Z,7.45
2023-02-08T11:19:42.709Z,10.38
2023-02-08T11:20:52.431Z,11.50
2023-02-08T11:22:01.782Z,5.32
2023-02-08T11:23:24.033Z,6.45
2023-02-08T11:24:34.473Z,6.00
2023-02-08T11:25:41.488Z,8.00
2023-02-08T11:26:49.111Z,8.10
2023-02-08T11:27:53.990Z,5.90
2023-02-08T11:29:12.438Z,9.50
2023-02-08T11:30:25.803Z,10.10
2023-02-08T11:31:35.308Z,8.77
2023-02-08T11:32:52.280Z,9.38
2023-02-08T11:34:10.423Z,7.50
2023-02-08T11:35:12.464Z,9.23
2023-02-08T11:36:14.546Z,7.40
2023-02-08T11:37:36.845Z,7.22
2023-02-08T11:38:43.408Z,9.18
2023-02-08T11:39:51.872Z,8.55
2023-02-08T11:40:58.991Z,5.95
2023-02-08T11:42:02.939Z,7.43
2023-02-08T11:43:20.524Z,10.40
2023-02-08T11:44:28.321Z,11.05
2023-02-08T11:45:40.680Z,9.18
2023-02-08T11:46:48.458Z,7.50
2023-02-08T11:47:51.992Z,9.48
2023-02-08T11:48:55.339Z,9.35
2023-02-08T11:50:01.804Z,10.35
2023-02-08T11:51:04.342Z,7.10
2023-02-08T11:52:19.977Z,8.20
2023-02-08T11:53:36.866Z,7.53
2023-02-08T11:54:41.522Z,7.07
2023-02-08T11:55:43.681Z,9.93
2023-02-08T11:57:02.891Z,7.78
2023-02-08T11:58:25.159Z,9.50
2023-02-08T11:59:28.997Z,5.65
2023-02-08T12:00:36.454Z,8.00
2023-02-08T12:01:40.896Z,6.80
2023-02-08T12:02:44.098Z,7.43
2023-02-08T12:03:48.770Z,8.65
2023-02-08T12:04:51.212Z,7.65
2023-02-08T12:06:05.005Z,9.73
2023-02-08T12:07:12.550Z,8.30
2023-02-08T12:08:23.523Z,8.60
2023-02-08T12:09:41.985Z,9.52
2023-02-08T12:11:10.170Z,8.43
2023-02-08T12:12:25.347Z,9.75
2023-02-08T12:14:24.171Z,7.57
2023-02-08T12:15:44.982Z,7.18
2023-02-08T12:16:53.375Z,7.40
2023-02-08T12:18:22.776Z,8.43
2023-02-08T12:20:00.334Z,9.30
2023-02-08T12:21:12.800Z,6.93
2023-02-08T12:22:24.839Z,6.82
2023-02-08T12:23:32.286Z,8.65
2023-02-08T12:24:43.216Z,6.65
2023-02-08T12:26:06.777Z,8.05
2023-02-08T12:27:27.475Z,9.75
2023-02-08T12:29:02.180Z,8.38
2023-02-08T12:30:10.525Z,5.93
2023-02-08T12:31:34.202Z,9.27
2023-02-08T12:33:05.212Z,7.40
2023-02-08T12:34:35.659Z,7.65
2023-02-08T12:36:04.762Z,7.30
2023-02-08T12:38:10.973Z,8.95
2023-02-08T12:39:47.526Z,6.32
2023-02-08T12:40:55.343Z,9.40
2023-02-08T12:42:26.618Z,8.98
2023-02-08T12:43:46.081Z,9.20
2023-02-08T12:45:17.786Z,6.90
2023-02-08T12:46:39.753Z,5.70
2023-02-08T12:48:04.392Z,9.02
2023-02-08T12:49:35.725Z,5.25
2023-02-08T12:50:51.129Z,5.25
2023-02-08T12:52:17.812Z,7.53
2023-02-08T12:53:45.866Z,9.32
2023-02-08T12:54:53.891Z,8.52
2023-02-08T12:56:00.637Z,9.18
2023-02-08T12:57:05.831Z,6.47
2023-02-08T12:58:31.247Z,8.90
2023-02-08T12:59:45.835Z,7.10
2023-02-08T13:00:50.653Z,8.85
2023-02-08T13:01:59.752Z,9.30
2023-02-08T13:03:07.471Z,11.07
2023-02-08T13:04:22.505Z,9.35
2023-02-08T13:05:30.271Z,9.20
2023-02-08T13:06:39.706Z,8.75
2023-02-08T13:07:44.389Z,8.68
2023-02-08T13:09:15.912Z,9.98
2023-02-08T13:10:28.115Z,9.27
2023-02-08T13:11:50.149Z,7.75
2023-02-08T13:12:57.197Z,9.07
2023-02-08T13:14:07.627Z,7.75
2023-02-08T13:15:30.242Z,9.38
2023-02-08T13:16:40.577Z,6.65
2023-02-08T13:17:47.357Z,5.60
2023-02-08T13:19:18.751Z,8.85
2023-02-08T13:20:45.537Z,7.85
2023-02-08T13:21:48.045Z,7.30
2023-02-08T13:22:53.175Z,9.70
2023-02-08T13:23:55.498Z,10.20
2023-02-08T13:25:06.977Z,9.48
2023-02-08T13:26:16.283Z,8.27
2023-02-08T13:27:20.913Z,7.32
2023-02-08T13:28:25.440Z,8.82
2023-02-08T13:29:29.855Z,8.48
2023-02-08T13:31:45.241Z,11.68
2023-02-08T13:32:51.825Z,8.98
2023-02-08T13:34:19.094Z,7.57
2023-02-08T13:35:31.768Z,9.10
2023-02-08T13:36:33.764Z,9.20
2023-02-08T13:37:36.189Z,10.77
2023-02-08T13:38:39.055Z,7.95
2023-02-08T13:39:43.970Z,7.88
2023-02-08T13:40:46.288Z,10.77
2023-02-08T13:41:54.372Z,12.02
2023-02-08T13:43:03.969Z,10.52
2023-02-08T13:44:20.771Z,10.13
2023-02-08T13:45:36.881Z,11.23
2023-02-08T13:46:50.130Z,8.30
2023-02-08T13:48:12.257Z,10.15
2023-02-08T13:49:52.635Z,9.27
2023-02-08T13:50:57.045Z,10.35
2023-02-08T13:53:02.386Z,9.73
2023-02-08T13:54:12.786Z,9.25
2023-02-08T13:55:38.255Z,8.65
2023-02-08T13:56:42.397Z,10.15
2023-02-08T13:57:56.041Z,10.82
2023-02-08T13:59:01.434Z,11.18
2023-02-08T14:00:22.465Z,10.05
2023-02-08T14:01:33.282Z,9.88
2023-02-08T14:02:35.309Z,10.82
2023-02-08T14:03:37.309Z,10.88
2023-02-08T14:04:43.406Z,11.43
2023-02-08T14:06:24.030Z,10.43
2023-02-08T14:07:42.439Z,8.45
2023-02-08T14:09:04.501Z,8.05
2023-02-08T14:10:18.750Z,9.15
2023-02-08T14:11:32.715Z,9.20
2023-02-08T14:13:00.690Z,10.18
2023-02-08T14:14:16.171Z,11.30
2023-02-08T14:15:25.238Z,9.60
2023-02-08T14:16:29.507Z,10.38
2023-02-08T14:17:31.738Z,10.98
2023-02-08T14:18:33.617Z,11.48
2023-02-08T14:19:42.560Z,10.77
2023-02-08T14:21:03.480Z,11.57
2023-02-08T14:22:15.382Z,10.90
2023-02-08T14:23:40.486Z,11.82
2023-02-08T14:24:48.291Z,10.35
2023-02-08T14:25:53.642Z,10.88
2023-02-08T14:27:17.510Z,11.55
2023-02-08T14:28:44.137Z,10.20
2023-02-08T14:30:01.481Z,9.98
2023-02-08T14:31:07.902Z,9.25
2023-02-08T14:32:23.117Z,11.13
2023-02-08T14:33:39.385Z,9.52
2023-02-08T14:34:41.496Z,10.80
2023-02-08T14:35:53.702Z,11.40
2023-02-08T14:37:10.984Z,11.68
2023-02-08T14:38:18.898Z,9.60
2023-02-08T14:39:30.553Z,11.60
2023-02-08T14:40:35.218Z,9.43
2023-02-08T14:41:44.656Z,10.93
2023-02-08T14:43:01.808Z,9.95
2023-02-08T14:45:39.978Z,9.48
2023-02-08T14:46:45.117Z,11.13
2023-02-08T14:47:46.933Z,9.23
2023-02-08T14:48:49.912Z,7.85
2023-02-08T14:50:18.805Z,7.15
2023-02-08T14:51:28.180Z,10.38
2023-02-08T14:52:30.761Z,9.40
2023-02-08T14:53:41.952Z,12.05
2023-02-08T14:55:00.136Z,12.07
2023-02-08T14:56:20.849Z,10.85
2023-02-08T14:57:31.628Z,9.55
2023-02-08T14:58:47.042Z,11.35
2023-02-08T14:59:49.891Z,11.52